createdAt,value
2018-11-27T00:00:34.578Z,11.75
2018-11-27T00:03:06.012Z,12.37
2018-11-27T00:05:35.872Z,12.50
2018-11-27T00:08:04.152Z,11.20
2018-11-27T00:10:34.658Z,12.15
2018-11-27T00:13:02.883Z,12.05
2018-11-27T00:15:31.037Z,12.15
2018-11-27T00:17:59.317Z,11.88
2018-11-27T00:20:27.500Z,12.98
2018-11-27T00:22:55.700Z,11.48
2018-11-27T00:25:23.899Z,13.62
2018-11-27T00:27:52.098Z,12.30
2018-11-27T00:30:20.912Z,12.03
2018-11-27T00:32:49.178Z,11.78
2018-11-27T00:35:18.504Z,12.50
2018-11-27T00:37:46.949Z,10.95
2018-11-27T00:40:20.552Z,8.48
2018-11-27T00:42:49.076Z,13.00
2018-11-27T00:45:18.990Z,12.07
2018-11-27T00:47:48.873Z,12.53
2018-11-27T00:50:20.703Z,12.53
2018-11-27T00:52:49.224Z,13.10
2018-11-27T00:55:18.856Z,11.30
2018-11-27T00:57:48.970Z,11.00
2018-11-27T01:00:18.674Z,11.43
2018-11-27T01:02:47.022Z,11.63
2018-11-27T01:05:17.118Z,12.07
2018-11-27T01:07:46.513Z,11.63
2018-11-27T01:10:23.179Z,13.20
2018-11-27T01:12:51.660Z,11.80
2018-11-27T01:15:19.883Z,11.40
2018-11-27T01:17:53.013Z,13.05
2018-11-27T01:20:21.984Z,12.20
2018-11-27T01:22:50.209Z,12.35
2018-11-27T01:25:18.344Z,11.50
2018-11-27T01:27:46.514Z,10.75
2018-11-27T01:30:17.370Z,12.30
2018-11-27T01:32:45.551Z,12.18
2018-11-27T01:35:16.149Z,11.18
2018-11-27T01:37:44.824Z,13.55
2018-11-27T01:40:21.227Z,12.33
2018-11-27T01:42:51.068Z,13.13
2018-11-27T01:45:20.138Z,13.72
2018-11-27T01:47:48.358Z,12.53
2018-11-27T01:50:17.370Z,12.40
2018-11-27T01:52:45.495Z,13.13
2018-11-27T01:55:16.067Z,14.38
2018-11-27T01:57:44.501Z,12.65
2018-11-27T02:00:22.646Z,13.13
2018-11-27T02:02:51.289Z,14.65
2018-11-27T02:05:19.864Z,11.63
2018-11-27T02:07:47.962Z,12.37
2018-11-27T02:10:16.190Z,12.10
2018-11-27T02:12:45.821Z,11.75
2018-11-27T02:15:19.704Z,12.68
2018-11-27T02:17:47.801Z,12.78
2018-11-27T02:20:15.992Z,12.80
2018-11-27T02:22:44.154Z,13.45
2018-11-27T02:25:16.115Z,12.43
2018-11-27T02:27:45.018Z,12.88
2018-11-27T02:30:17.681Z,14.80
2018-11-27T02:32:45.815Z,14.55
2018-11-27T02:35:17.375Z,13.75
2018-11-27T02:37:46.625Z,14.03
2018-11-27T02:40:15.815Z,13.45
2018-11-27T02:42:44.695Z,13.30
2018-11-27T02:45:15.324Z,14.40
2018-11-27T02:47:43.867Z,14.10
2018-11-27T02:50:13.647Z,14.50
2018-11-27T02:52:41.827Z,13.03
2018-11-27T02:55:18.323Z,13.43
2018-11-27T02:57:46.811Z,13.93
2018-11-27T03:00:17.378Z,13.58
2018-11-27T03:02:45.557Z,14.95
2018-11-27T03:05:23.957Z,14.47
2018-11-27T03:07:52.059Z,15.00
2018-11-27T03:10:20.221Z,13.90
2018-11-27T03:12:48.315Z,13.68
2018-11-27T03:15:17.737Z,14.45
2018-11-27T03:17:45.919Z,13.53
2018-11-27T03:20:15.488Z,14.18
2018-11-27T03:22:43.733Z,14.50
2018-11-27T03:25:16.522Z,13.75
2018-11-27T03:27:46.140Z,14.15
2018-11-27T03:30:18.535Z,14.38
2018-11-27T03:32:46.592Z,13.72
2018-11-27T03:35:16.926Z,13.28
2018-11-27T03:37:47.256Z,14.18
2018-11-27T03:40:22.181Z,15.03
2018-11-27T03:42:50.377Z,13.93
2018-11-27T03:45:19.110Z,14.63
2018-11-27T03:47:47.528Z,13.10
2018-11-27T03:50:23.311Z,12.93
2018-11-27T03:52:51.430Z,13.35
2018-11-27T03:55:19.574Z,12.80
2018-11-27T03:57:47.702Z,11.93
2018-11-27T04:00:20.218Z,14.43
2018-11-27T04:03:07.254Z,14.00
2018-11-27T04:05:35.589Z,15.45
2018-11-27T04:08:04.526Z,14.65
2018-11-27T04:10:32.637Z,13.78
2018-11-27T04:13:00.750Z,12.13
2018-11-27T04:15:28.852Z,14.68
2018-11-27T04:17:57.016Z,13.83
2018-11-27T04:20:25.111Z,13.55
2018-11-27T04:22:53.251Z,13.55
2018-11-27T04:25:21.448Z,14.40
2018-11-27T04:27:49.620Z,14.00
2018-11-27T04:30:19.238Z,14.30
2018-11-27T04:32:47.327Z,13.80
2018-11-27T04:35:18.734Z,13.88
2018-11-27T04:37:47.101Z,15.32
2018-11-27T04:40:16.887Z,15.00
2018-11-27T04:42:44.972Z,14.43
2018-11-27T04:45:23.296Z,13.95
2018-11-27T04:47:51.426Z,15.53
2018-11-27T04:50:19.883Z,14.80
2018-11-27T04:52:48.050Z,13.38
2018-11-27T04:55:18.230Z,14.60
2018-11-27T04:57:47.528Z,13.05
2018-11-27T05:00:17.936Z,14.90
2018-11-27T05:02:46.226Z,14.07
2018-11-27T05:05:14.402Z,15.05
2018-11-27T05:07:42.491Z,13.08
2018-11-27T05:10:15.068Z,15.05
2018-11-27T05:12:43.454Z,13.45
2018-11-27T05:15:21.048Z,14.15
2018-11-27T05:17:50.928Z,15.80
2018-11-27T05:20:19.844Z,15.10
2018-11-27T05:22:47.909Z,14.55
2018-11-27T05:25:17.624Z,15.55
2018-11-27T05:27:47.471Z,13.48
2018-11-27T05:30:21.180Z,13.90
2018-11-27T05:32:49.423Z,14.70
2018-11-27T05:35:22.329Z,13.45
2018-11-27T05:37:50.714Z,15.20
2018-11-27T05:40:22.450Z,14.75
2018-11-27T05:42:53.475Z,13.00
2018-11-27T05:45:23.307Z,13.88
2018-11-27T05:47:51.439Z,14.40
2018-11-27T05:50:19.678Z,13.68
2018-11-27T05:52:47.885Z,14.30
2018-11-27T05:55:17.177Z,13.40
2018-11-27T05:57:48.212Z,14.73
2018-11-27T06:00:19.141Z,13.18
2018-11-27T06:02:49.278Z,13.00
2018-11-27T06:05:20.057Z,13.43
2018-11-27T06:07:48.170Z,14.70
2018-11-27T06:10:17.951Z,14.43
2018-11-27T06:12:46.147Z,13.50
2018-11-27T06:15:24.224Z,16.12
2018-11-27T06:17:55.493Z,13.72
2018-11-27T06:20:23.892Z,12.58
2018-11-27T06:22:52.972Z,14.78
2018-11-27T06:25:23.745Z,12.13
2018-11-27T06:28:01.530Z,13.90
2018-11-27T06:30:31.158Z,13.45
2018-11-27T06:32:59.317Z,15.18
2018-11-27T06:35:38.881Z,14.03
2018-11-27T06:38:08.782Z,14.10
2018-11-27T06:40:37.071Z,15.50
2018-11-27T06:43:08.448Z,16.37
2018-11-27T06:45:36.937Z,14.45
2018-11-27T06:48:05.264Z,14.35
2018-11-27T06:50:33.646Z,14.40
2018-11-27T06:53:01.726Z,14.13
2018-11-27T06:55:30.460Z,15.43
2018-11-27T06:57:58.703Z,13.93
2018-11-27T07:00:28.268Z,14.23
2018-11-27T07:02:57.790Z,14.38
2018-11-27T07:05:26.102Z,15.08
2018-11-27T07:07:54.296Z,13.68
2018-11-27T07:10:29.303Z,14.45
2018-11-27T07:13:03.297Z,15.00
2018-11-27T07:15:31.767Z,14.33
2018-11-27T07:18:00.037Z,14.70
2018-11-27T07:20:28.231Z,17.12
2018-11-27T07:22:56.478Z,14.60
2018-11-27T07:25:31.289Z,13.45
2018-11-27T07:27:59.542Z,15.13
2018-11-27T07:30:27.691Z,13.15
2018-11-27T07:32:55.737Z,15.40
2018-11-27T07:35:23.945Z,14.85
2018-11-27T07:37:52.231Z,13.43
2018-11-27T07:40:23.336Z,14.63
2018-11-27T07:42:53.444Z,13.95
2018-11-27T07:45:23.067Z,12.47
2018-11-27T07:47:51.336Z,12.95
2018-11-27T07:50:19.624Z,14.15
2018-11-27T07:52:47.772Z,13.28
2018-11-27T07:55:19.199Z,14.78
2018-11-27T07:57:47.699Z,13.13
2018-11-27T08:00:18.110Z,15.83
2018-11-27T08:02:50.280Z,14.80
2018-11-27T08:05:24.837Z,13.72
2018-11-27T08:07:54.645Z,14.23
2018-11-27T08:10:27.600Z,16.00
2018-11-27T08:12:55.804Z,14.95
2018-11-27T08:15:26.015Z,13.90
2018-11-27T08:17:54.278Z,14.98
2018-11-27T08:20:25.449Z,13.10
2018-11-27T08:22:53.620Z,14.63
2018-11-27T08:25:21.738Z,13.38
2018-11-27T08:27:49.909Z,14.68
2018-11-27T08:30:20.933Z,14.10
2018-11-27T08:32:49.368Z,13.72
2018-11-27T08:35:22.044Z,12.13
2018-11-27T08:37:51.974Z,14.15
2018-11-27T08:40:21.886Z,14.25
2018-11-27T08:42:50.029Z,14.33
2018-11-27T08:45:19.924Z,12.90
2018-11-27T08:47:49.234Z,14.25
2018-11-27T08:50:19.190Z,11.35
2018-11-27T08:52:49.309Z,12.33
2018-11-27T08:55:20.815Z,13.58
2018-11-27T08:57:49.099Z,12.78
2018-11-27T09:00:21.623Z,12.30
2018-11-27T09:02:49.780Z,12.58
2018-11-27T09:05:17.983Z,13.68
2018-11-27T09:07:46.648Z,12.33
2018-11-27T09:10:21.695Z,12.43
2018-11-27T09:12:49.854Z,13.65
2018-11-27T09:15:19.775Z,13.85
2018-11-27T09:18:22.204Z,11.90
2018-11-27T09:20:50.400Z,12.95
2018-11-27T09:23:18.688Z,15.43
2018-11-27T09:25:46.847Z,13.95
2018-11-27T09:28:15.006Z,14.00
2018-11-27T09:30:44.346Z,13.90
2018-11-27T09:33:12.626Z,14.33
2018-11-27T09:35:40.745Z,15.13
2018-11-27T09:38:09.084Z,14.65
2018-11-27T09:40:37.286Z,13.28
2018-11-27T09:43:06.423Z,14.93
2018-11-27T09:45:35.563Z,15.50
2018-11-27T09:48:03.956Z,14.28
2018-11-27T09:50:32.256Z,12.60
2018-11-27T09:53:00.462Z,14.63
2018-11-27T09:55:28.706Z,13.20
2018-11-27T09:57:59.286Z,12.82
2018-11-27T10:00:28.318Z,14.05
2018-11-27T10:03:04.816Z,14.85
2018-11-27T10:05:34.397Z,13.38
2018-11-27T10:08:02.930Z,14.95
2018-11-27T10:10:31.083Z,14.47
2018-11-27T10:12:59.246Z,16.77
2018-11-27T10:15:28.568Z,14.85
2018-11-27T10:18:00.842Z,15.95
2018-11-27T10:20:37.576Z,15.30
2018-11-27T10:23:12.763Z,14.65
2018-11-27T10:25:40.864Z,15.83
2018-11-27T10:28:09.539Z,13.72
2018-11-27T10:30:37.804Z,15.40
2018-11-27T10:33:08.144Z,14.98
2018-11-27T10:35:41.632Z,13.90
2018-11-27T10:38:09.777Z,16.30
2018-11-27T10:40:38.159Z,16.52
2018-11-27T10:43:06.541Z,13.75
2018-11-27T10:45:34.980Z,14.65
2018-11-27T10:48:03.412Z,15.70
2018-11-27T10:50:31.652Z,13.45
2018-11-27T10:52:59.958Z,15.88
2018-11-27T10:55:28.178Z,16.00
2018-11-27T10:57:56.435Z,15.20
2018-11-27T11:00:32.135Z,14.13
2018-11-27T11:03:06.957Z,15.35
2018-11-27T11:05:37.050Z,15.83
2018-11-27T11:08:05.406Z,14.35
2018-11-27T11:10:33.626Z,13.68
2018-11-27T11:13:01.847Z,15.28
2018-11-27T11:15:30.062Z,15.90
2018-11-27T11:17:58.272Z,15.50
2018-11-27T11:20:26.561Z,14.53
2018-11-27T11:22:54.936Z,16.37
2018-11-27T11:25:24.410Z,15.20
2018-11-27T11:27:54.766Z,14.38
2018-11-27T11:30:23.227Z,15.15
2018-11-27T11:32:51.528Z,15.68
2018-11-27T11:35:19.687Z,13.55
2018-11-27T11:37:48.535Z,14.28
2018-11-27T11:40:20.352Z,15.80
2018-11-27T11:42:50.301Z,13.83
2018-11-27T11:45:18.557Z,15.18
2018-11-27T11:47:46.879Z,15.80
2018-11-27T11:50:22.566Z,13.70
2018-11-27T11:52:55.784Z,16.10
2018-11-27T11:55:24.045Z,15.65
2018-11-27T11:57:52.199Z,14.90
2018-11-27T12:00:24.328Z,15.00
2018-11-27T12:02:52.619Z,15.10
2018-11-27T12:05:24.996Z,17.45
2018-11-27T12:07:49.176Z,15.68
2018-11-27T12:10:17.384Z,15.88
2018-11-27T12:12:47.855Z,15.13
2018-11-27T12:15:18.191Z,15.00
2018-11-27T12:17:47.367Z,15.68
2018-11-27T12:20:16.931Z,16.23
2018-11-27T12:22:50.467Z,15.50
2018-11-27T12:25:23.984Z,14.95
2018-11-27T12:27:47.797Z,15.75
2018-11-27T12:30:21.125Z,16.97
2018-11-27T12:32:49.542Z,17.45
2018-11-27T12:35:18.608Z,17.40
2018-11-27T12:37:46.921Z,17.05
2018-11-27T12:40:26.491Z,17.75
2018-11-27T12:42:55.404Z,16.05
2018-11-27T12:45:28.221Z,14.95
2018-11-27T12:47:58.139Z,16.65
2018-11-27T12:50:35.131Z,16.82
2018-11-27T12:53:03.394Z,17.50
2018-11-27T12:55:31.576Z,17.10
2018-11-27T12:58:00.089Z,16.93
2018-11-27T13:00:28.212Z,16.20
2018-11-27T13:02:56.593Z,18.20
2018-11-27T13:05:27.004Z,18.02
2018-11-27T13:08:00.166Z,16.97
2018-11-27T13:10:28.687Z,15.15
2018-11-27T13:12:56.964Z,15.78
2018-11-27T13:15:25.135Z,17.62
2018-11-27T13:17:53.812Z,18.30
2018-11-27T13:20:22.099Z,17.27
2018-11-27T13:22:51.682Z,16.97
2018-11-27T13:25:21.954Z,15.38
2018-11-27T13:27:51.855Z,17.30
2018-11-27T13:30:53.685Z,18.15
2018-11-27T13:33:28.649Z,16.60
2018-11-27T13:35:57.453Z,15.88
2018-11-27T13:38:26.272Z,16.00
2018-11-27T13:40:53.997Z,16.57
2018-11-27T13:43:27.262Z,15.88
2018-11-27T13:45:57.415Z,16.05
2018-11-27T13:48:25.661Z,16.55
2018-11-27T13:50:53.879Z,16.75
2018-11-27T13:53:22.162Z,17.87
2018-11-27T13:55:50.382Z,16.77
2018-11-27T13:58:18.676Z,17.80
2018-11-27T14:00:47.393Z,16.82
2018-11-27T14:03:15.547Z,15.23
2018-11-27T14:05:43.909Z,17.50
2018-11-27T14:08:12.323Z,17.85
2018-11-27T14:10:40.781Z,16.27
2018-11-27T14:13:09.622Z,17.37
2018-11-27T14:15:39.060Z,16.50
2018-11-27T14:18:08.008Z,14.98
2018-11-27T14:20:36.255Z,16.23
2018-11-27T14:23:05.553Z,17.30
2018-11-27T14:25:33.866Z,17.02
2018-11-27T14:28:02.233Z,18.75
2018-11-27T14:30:30.485Z,16.23
2018-11-27T14:32:58.837Z,17.50
2018-11-27T14:35:27.108Z,16.42
2018-11-27T14:37:56.008Z,17.30
2018-11-27T14:40:27.276Z,17.32
2018-11-27T14:42:55.617Z,14.95
2018-11-27T14:45:25.047Z,17.70
2018-11-27T14:47:56.060Z,16.45
2018-11-27T14:50:25.261Z,18.50
2018-11-27T14:52:53.537Z,16.90
2018-11-27T14:55:27.516Z,16.90
2018-11-27T14:57:55.719Z,16.65
2018-11-27T15:00:24.994Z,17.87
2018-11-27T15:02:53.423Z,18.95
2018-11-27T15:05:38.876Z,17.75
2018-11-27T15:08:10.214Z,17.27
2018-11-27T15:10:38.385Z,16.50
2018-11-27T15:13:07.884Z,17.17
2018-11-27T15:15:36.192Z,18.40
2018-11-27T15:18:05.607Z,17.00
2018-11-27T15:20:33.845Z,17.25
2018-11-27T15:23:02.172Z,15.95
2018-11-27T15:25:30.396Z,18.48
2018-11-27T15:27:58.617Z,17.45
2018-11-27T15:30:28.997Z,16.52
2018-11-27T15:32:59.791Z,17.77
2018-11-27T15:35:28.048Z,19.23
2018-11-27T15:37:56.194Z,17.02
2018-11-27T15:40:27.078Z,15.30
2018-11-27T15:42:55.298Z,17.15
2018-11-27T15:45:29.235Z,16.45
2018-11-27T15:47:57.470Z,16.87
2018-11-27T15:50:25.659Z,15.90
2018-11-27T15:52:53.875Z,14.65
2018-11-27T15:55:25.195Z,15.23
2018-11-27T15:57:57.350Z,16.10
2018-11-27T16:00:25.595Z,16.67
2018-11-27T16:02:54.045Z,16.35
2018-11-27T16:05:22.531Z,15.65
2018-11-27T16:07:50.852Z,15.88
2018-11-27T16:10:19.477Z,15.95
2018-11-27T16:12:47.809Z,15.35
2018-11-27T16:15:17.959Z,15.55
2018-11-27T16:17:46.695Z,15.13
2018-11-27T16:20:16.651Z,16.82
2018-11-27T16:22:47.508Z,15.68
2018-11-27T16:25:19.421Z,15.35
2018-11-27T16:27:47.661Z,15.23
2018-11-27T16:30:24.162Z,15.30
2018-11-27T16:32:52.487Z,13.38
2018-11-27T16:35:20.792Z,15.70
2018-11-27T16:37:53.731Z,15.23
2018-11-27T16:40:32.184Z,16.37
2018-11-27T16:43:01.141Z,15.23
2018-11-27T16:45:29.435Z,15.68
2018-11-27T16:47:57.648Z,14.98
2018-11-27T16:50:25.941Z,16.37
2018-11-27T16:52:54.251Z,14.33
2018-11-27T16:55:23.597Z,15.88
2018-11-27T16:57:51.936Z,15.23
2018-11-27T17:00:24.722Z,13.90
2018-11-27T17:02:58.744Z,15.18
2018-11-27T17:05:29.212Z,15.32
2018-11-27T17:07:58.190Z,16.25
2018-11-27T17:10:26.576Z,16.55
2018-11-27T17:12:56.575Z,16.05
2018-11-27T17:15:26.631Z,15.63
2018-11-27T17:17:55.106Z,16.77
2018-11-27T17:20:28.422Z,16.07
2018-11-27T17:23:00.617Z,16.30
2018-11-27T17:25:29.009Z,16.10
2018-11-27T17:27:59.544Z,14.45
2018-11-27T17:30:36.087Z,15.35
2018-11-27T17:33:08.744Z,15.55
2018-11-27T17:35:37.110Z,15.35
2018-11-27T17:38:06.630Z,17.52
2018-11-27T17:40:34.103Z,16.52
2018-11-27T17:43:02.352Z,14.50
2018-11-27T17:45:31.607Z,15.25
2018-11-27T17:48:00.410Z,16.02
2018-11-27T17:50:28.631Z,14.38
2018-11-27T17:52:57.083Z,16.57
2018-11-27T17:55:25.789Z,15.60
2018-11-27T17:57:54.034Z,15.00
2018-11-27T18:00:24.915Z,14.25
2018-11-27T18:02:56.573Z,14.75
2018-11-27T18:05:24.924Z,14.75
2018-11-27T18:07:53.530Z,16.10
2018-11-27T18:10:21.835Z,15.40
2018-11-27T18:12:50.211Z,13.93
2018-11-27T18:15:20.235Z,14.60
2018-11-27T18:17:48.579Z,14.53
2018-11-27T18:20:17.068Z,15.50
2018-11-27T18:22:45.555Z,16.27
2018-11-27T18:25:15.567Z,16.37
2018-11-27T18:27:46.363Z,15.45
2018-11-27T18:30:17.839Z,14.85
2018-11-27T18:32:46.343Z,14.55
2018-11-27T18:35:17.662Z,13.80
2018-11-27T18:37:46.367Z,14.75
2018-11-27T18:40:15.642Z,16.15
2018-11-27T18:42:44.446Z,14.98
2018-11-27T18:45:21.306Z,14.80
2018-11-27T18:47:49.844Z,15.63
2018-11-27T18:50:18.344Z,16.10
2018-11-27T18:52:46.774Z,15.63
2018-11-27T18:55:16.285Z,15.88
2018-11-27T18:57:45.990Z,14.90
2018-11-27T19:00:24.016Z,16.32
2018-11-27T19:02:52.511Z,15.65
2018-11-27T19:05:21.242Z,16.17
2018-11-27T19:07:49.694Z,13.90
2018-11-27T19:10:22.748Z,14.30
2018-11-27T19:12:51.217Z,15.15
2018-11-27T19:15:31.783Z,14.80
2018-11-27T19:18:11.722Z,14.15
2018-11-27T19:20:40.134Z,15.05
2018-11-27T19:23:09.505Z,15.35
2018-11-27T19:25:38.015Z,16.10
2018-11-27T19:28:07.894Z,15.15
2018-11-27T19:30:37.133Z,15.30
2018-11-27T19:33:06.042Z,17.05
2018-11-27T19:35:34.532Z,14.58
2018-11-27T19:38:03.062Z,16.90
2018-11-27T19:40:31.414Z,14.65
2018-11-27T19:42:59.780Z,16.07
2018-11-27T19:45:28.253Z,15.05
2018-11-27T19:47:56.741Z,13.72
2018-11-27T19:50:25.355Z,13.95
2018-11-27T19:52:55.713Z,15.78
2018-11-27T19:55:24.503Z,14.15
2018-11-27T19:57:53.186Z,14.73
2018-11-27T20:00:24.579Z,15.10
2018-11-27T20:02:53.463Z,16.25
2018-11-27T20:05:25.485Z,15.83
2018-11-27T20:07:53.888Z,16.12
2018-11-27T20:10:22.238Z,15.45
2018-11-27T20:12:50.757Z,15.32
2018-11-27T20:15:24.292Z,15.28
2018-11-27T20:17:53.611Z,16.05
2018-11-27T20:20:24.536Z,15.35
2018-11-27T20:22:54.102Z,15.10
2018-11-27T20:25:23.236Z,15.38
2018-11-27T20:27:52.003Z,15.95
2018-11-27T20:30:23.149Z,15.08
2018-11-27T20:32:57.520Z,15.10
2018-11-27T20:35:26.544Z,17.12
2018-11-27T20:37:56.125Z,15.65
2018-11-27T20:40:24.561Z,16.00
2018-11-27T20:42:52.883Z,16.52
2018-11-27T20:45:23.219Z,17.48
2018-11-27T20:47:55.260Z,18.30
2018-11-27T20:50:23.810Z,16.62
2018-11-27T20:52:52.486Z,18.67
2018-11-27T20:55:21.563Z,15.85
2018-11-27T20:57:56.029Z,17.23
2018-11-27T21:00:29.864Z,17.77
2018-11-27T21:02:59.833Z,18.37
2018-11-27T21:05:28.377Z,18.27
2018-11-27T21:07:56.918Z,16.02
2018-11-27T21:10:25.862Z,15.83
2018-11-27T21:12:54.334Z,16.57
2018-11-27T21:15:23.635Z,16.02
2018-11-27T21:17:52.567Z,16.82
2018-11-27T21:20:21.087Z,17.77
2018-11-27T21:22:50.149Z,17.20
2018-11-27T21:25:21.307Z,16.65
2018-11-27T21:28:05.796Z,17.82
2018-11-27T21:30:34.253Z,16.80
2018-11-27T21:33:02.584Z,17.15
2018-11-27T21:35:31.141Z,17.30
2018-11-27T21:37:59.707Z,16.87
2018-11-27T21:40:28.090Z,17.90
2018-11-27T21:42:56.419Z,20.50
2018-11-27T21:45:26.853Z,18.55
2018-11-27T21:47:57.187Z,18.90
2018-11-27T21:50:31.256Z,20.50
2018-11-27T21:53:00.867Z,18.65
2018-11-27T21:55:29.242Z,17.40
2018-11-27T21:57:57.512Z,17.90
2018-11-27T22:00:26.446Z,20.23
2018-11-27T22:02:54.922Z,20.12
2018-11-27T22:05:23.206Z,18.87
2018-11-27T22:07:51.565Z,21.15
2018-11-27T22:10:21.564Z,19.82
2018-11-27T22:12:54.801Z,19.67
2018-11-27T22:15:26.354Z,19.52
2018-11-27T22:17:54.876Z,18.85
2018-11-27T22:20:30.092Z,20.02
2018-11-27T22:22:58.301Z,19.35
2018-11-27T22:25:26.630Z,19.32
2018-11-27T22:27:54.991Z,20.72
2018-11-27T22:30:23.326Z,19.05
2018-11-27T22:32:53.080Z,18.57
2018-11-27T22:35:21.635Z,19.07
2018-11-27T22:37:50.015Z,21.45
2018-11-27T22:40:21.103Z,19.15
2018-11-27T22:42:50.821Z,19.23
2018-11-27T22:45:25.144Z,20.43
2018-11-27T22:47:53.557Z,19.77
2018-11-27T22:50:21.932Z,19.50
2018-11-27T22:52:50.225Z,19.85
2018-11-27T22:55:18.728Z,19.95
2018-11-27T22:57:47.300Z,19.12
2018-11-27T23:00:51.862Z,18.70
2018-11-27T23:03:20.700Z,18.65
2018-11-27T23:05:49.123Z,20.82
2018-11-27T23:08:17.694Z,18.80
2018-11-27T23:10:47.567Z,19.20
2018-11-27T23:13:15.925Z,19.20
2018-11-27T23:15:44.197Z,20.02
2018-11-27T23:18:12.319Z,18.55
2018-11-27T23:20:40.614Z,19.32
2018-11-27T23:23:08.790Z,18.45
2018-11-27T23:25:37.028Z,20.10
2018-11-27T23:28:05.277Z,18.12
2018-11-27T23:30:33.487Z,18.90
2018-11-27T23:33:01.760Z,19.32
2018-11-27T23:35:30.155Z,17.87
2018-11-27T23:37:58.447Z,20.10
2018-11-27T23:40:26.696Z,19.57
2018-11-27T23:42:54.955Z,20.35
2018-11-27T23:45:23.827Z,19.57
2018-11-27T23:47:52.031Z,18.40
2018-11-27T23:50:21.152Z,19.50
2018-11-27T23:52:49.395Z,18.90
2018-11-27T23:55:18.417Z,19.02
2018-11-27T23:57:46.964Z,18.45
